Time;durP1;ratioP1;P1;durP2;ratioP2;P2;SDS_P1;SDS_P2;PMS_P1;PMS_P2;Temp;Humidity;BMP_temperature;BMP_pressure;BME280_temperature;BME280_humidity;BME280_pressure;Samples;Min_cycle;Max_cycle;Signal;HPM_P1;HPM_P2
2024/01/14 00:00:33;;;;;;;16.65;1.75;;;;;;;;;;5039084;28;20034;-80
2024/01/14 00:02:59;;;;;;;24.65;2.38;;;;;;;;;;5022462;28;20091;-81
2024/01/14 00:05:25;;;;;;;12.70;1.98;;;;;;;;;;5038744;28;20054;-80
2024/01/14 00:07:52;;;;;;;13.45;1.70;;;;;;;;;;5023875;28;20491;-81
2024/01/14 00:10:19;;;;;;;10.45;1.55;;;;;;;;;;5028513;28;20498;-80
2024/01/14 00:12:45;;;;;;;14.90;1.45;;;;;;;;;;5025767;28;20060;-80
2024/01/14 00:15:11;;;;;;;18.45;2.08;;;;;;;;;;5027960;28;20038;-80
2024/01/14 00:17:37;;;;;;;24.55;3.83;;;;;;;;;;5008710;28;20125;-80
2024/01/14 00:20:04;;;;;;;9.73;1.73;;;;;;;;;;5018756;28;20037;-80
2024/01/14 00:22:30;;;;;;;23.77;2.95;;;;;;;;;;5023342;28;20030;-80
2024/01/14 00:24:57;;;;;;;21.98;2.95;;;;;;;;;;5040488;28;20042;-80
2024/01/14 00:27:23;;;;;;;17.48;2.55;;;;;;;;;;5022205;28;20026;-77
2024/01/14 00:29:50;;;;;;;13.02;2.78;;;;;;;;;;5023191;28;20064;-79
2024/01/14 00:32:16;;;;;;;19.30;2.33;;;;;;;;;;5038536;28;20053;-79
2024/01/14 00:34:42;;;;;;;19.10;2.20;;;;;;;;;;5020751;28;20040;-79
2024/01/14 00:37:08;;;;;;;15.38;1.63;;;;;;;;;;5024973;28;20484;-80
2024/01/14 00:39:42;;;;;;;16.55;3.03;;;;;;;;;;5025587;28;20072;-80
2024/01/14 00:42:08;;;;;;;20.13;3.03;;;;;;;;;;5020188;28;20067;-79
2024/01/14 00:44:34;;;;;;;14.60;1.65;;;;;;;;;;5023113;28;20030;-80
2024/01/14 00:47:00;;;;;;;14.35;1.70;;;;;;;;;;5023655;28;20033;-79
2024/01/14 00:49:26;;;;;;;16.67;1.63;;;;;;;;;;5025762;28;20038;-80
2024/01/14 00:51:53;;;;;;;25.92;1.95;;;;;;;;;;5021387;28;20040;-79
2024/01/14 00:54:20;;;;;;;22.52;1.77;;;;;;;;;;5021727;28;20041;-80
2024/01/14 00:56:47;;;;;;;14.68;2.10;;;;;;;;;;5014280;28;20040;-79
2024/01/14 00:59:13;;;;;;;14.20;1.83;;;;;;;;;;5035300;28;20033;-79
2024/01/14 01:01:39;;;;;;;13.10;1.73;;;;;;;;;;5016238;28;20133;-80
2024/01/14 01:04:05;;;;;;;9.95;1.27;;;;;;;;;;5020914;28;20407;-80
2024/01/14 01:06:31;;;;;;;10.40;1.45;;;;;;;;;;5037190;28;20057;-79
2024/01/14 01:08:58;;;;;;;11.00;1.30;;;;;;;;;;5025657;28;20042;-80
2024/01/14 01:11:24;;;;;;;11.23;1.63;;;;;;;;;;5026210;28;20460;-80
2024/01/14 01:13:50;;;;;;;17.20;1.33;;;;;;;;;;5034675;28;20029;-80
2024/01/14 01:16:16;;;;;;;14.80;2.15;;;;;;;;;;5031891;28;20030;-78
2024/01/14 01:18:42;;;;;;;16.55;2.17;;;;;;;;;;5024600;28;20029;-79
2024/01/14 01:21:08;;;;;;;13.13;1.85;;;;;;;;;;5019463;28;20072;-80
2024/01/14 01:23:36;;;;;;;8.43;1.88;;;;;;;;;;5025342;28;20036;-80
2024/01/14 01:26:05;;;;;;;13.93;1.30;;;;;;;;;;5043123;28;20672;-79
2024/01/14 01:28:31;;;;;;;29.27;3.80;;;;;;;;;;5013758;28;20025;-80
2024/01/14 01:30:59;;;;;;;19.75;3.30;;;;;;;;;;5023252;28;20021;-80
2024/01/14 01:33:25;;;;;;;15.20;2.42;;;;;;;;;;5018429;28;20040;-80
2024/01/14 01:35:51;;;;;;;8.07;1.58;;;;;;;;;;5022407;28;20045;-78
2024/01/14 01:38:17;;;;;;;20.35;2.90;;;;;;;;;;5026220;28;20048;-79
2024/01/14 01:40:44;;;;;;;20.17;2.33;;;;;;;;;;5019812;28;20071;-79
2024/01/14 01:43:10;;;;;;;12.20;2.38;;;;;;;;;;5021539;28;20154;-77
2024/01/14 01:45:37;;;;;;;18.80;2.55;;;;;;;;;;5026091;28;20037;-79
2024/01/14 01:48:04;;;;;;;11.40;1.95;;;;;;;;;;5021417;28;20459;-79
2024/01/14 01:50:30;;;;;;;13.80;2.00;;;;;;;;;;5018366;28;20034;-80
2024/01/14 01:52:57;;;;;;;24.35;3.50;;;;;;;;;;5031230;28;20025;-80
2024/01/14 01:55:23;;;;;;;17.42;1.73;;;;;;;;;;5021751;28;20573;-80
2024/01/14 01:57:49;;;;;;;14.00;1.80;;;;;;;;;;5020164;28;20040;-80
2024/01/14 02:00:16;;;;;;;18.55;1.63;;;;;;;;;;5015532;28;20025;-78
2024/01/14 02:02:42;;;;;;;11.68;1.30;;;;;;;;;;5007571;28;20029;-79
2024/01/14 02:05:09;;;;;;;16.42;1.95;;;;;;;;;;5032510;28;20518;-80
2024/01/14 02:07:35;;;;;;;12.57;1.73;;;;;;;;;;5018346;28;20479;-80
2024/01/14 02:10:04;;;;;;;15.75;1.92;;;;;;;;;;5026159;28;20722;-80
2024/01/14 02:12:30;;;;;;;9.35;1.73;;;;;;;;;;5025399;28;20033;-79
2024/01/14 02:14:56;;;;;;;18.92;2.05;;;;;;;;;;5020222;28;20065;-81
2024/01/14 02:17:22;;;;;;;16.33;1.50;;;;;;;;;;5026669;28;20056;-81
2024/01/14 02:19:48;;;;;;;15.13;1.48;;;;;;;;;;5021166;28;20045;-81
2024/01/14 02:22:17;;;;;;;15.30;2.22;;;;;;;;;;5024634;28;20495;-79
2024/01/14 02:24:43;;;;;;;19.38;1.88;;;;;;;;;;5020341;28;20037;-79
2024/01/14 02:27:09;;;;;;;19.45;2.00;;;;;;;;;;5026113;28;20034;-80
2024/01/14 02:29:38;;;;;;;19.35;2.10;;;;;;;;;;5018583;28;20036;-79
2024/01/14 02:32:04;;;;;;;13.27;1.52;;;;;;;;;;5028667;28;20064;-80
2024/01/14 02:34:32;;;;;;;20.05;2.50;;;;;;;;;;5040027;28;20072;-79
2024/01/14 02:37:00;;;;;;;18.05;3.05;;;;;;;;;;5043429;28;20853;-80
2024/01/14 02:39:26;;;;;;;17.33;1.70;;;;;;;;;;5024351;28;20176;-80
2024/01/14 02:41:52;;;;;;;20.77;1.98;;;;;;;;;;5027099;28;20043;-79
2024/01/14 02:44:18;;;;;;;21.45;2.45;;;;;;;;;;5038486;28;20037;-79
2024/01/14 02:46:44;;;;;;;10.98;2.58;;;;;;;;;;5032174;28;20037;-79
2024/01/14 02:49:11;;;;;;;10.98;2.85;;;;;;;;;;5028763;28;20078;-79
2024/01/14 02:51:37;;;;;;;23.27;3.17;;;;;;;;;;5017757;28;20040;-78
2024/01/14 02:54:03;;;;;;;16.33;2.40;;;;;;;;;;5022872;28;20439;-79
2024/01/14 02:56:29;;;;;;;20.40;1.83;;;;;;;;;;5026133;28;20036;-79
2024/01/14 02:58:56;;;;;;;19.55;2.67;;;;;;;;;;5045110;28;20026;-79
2024/01/14 03:01:22;;;;;;;23.58;2.55;;;;;;;;;;5028463;28;20113;-79
2024/01/14 03:03:48;;;;;;;17.92;2.88;;;;;;;;;;5027726;28;20037;-78
2024/01/14 03:06:14;;;;;;;24.33;2.97;;;;;;;;;;5021721;28;20398;-79
2024/01/14 03:08:40;;;;;;;27.05;3.30;;;;;;;;;;5023760;28;20072;-79
2024/01/14 03:11:06;;;;;;;24.17;2.45;;;;;;;;;;5023346;28;20065;-79
2024/01/14 03:13:32;;;;;;;29.85;2.55;;;;;;;;;;5027556;28;20037;-79
2024/01/14 03:15:58;;;;;;;22.15;2.08;;;;;;;;;;5022696;28;20069;-78
2024/01/14 03:18:25;;;;;;;23.35;2.75;;;;;;;;;;5020870;28;20030;-79
2024/01/14 03:20:51;;;;;;;28.20;3.15;;;;;;;;;;5019951;28;20526;-79
2024/01/14 03:23:18;;;;;;;22.70;3.80;;;;;;;;;;5020630;28;20072;-79
2024/01/14 03:25:44;;;;;;;19.20;1.90;;;;;;;;;;5025816;28;20122;-78
2024/01/14 03:28:10;;;;;;;10.73;2.15;;;;;;;;;;5026498;28;20037;-79
2024/01/14 03:30:36;;;;;;;22.90;3.33;;;;;;;;;;5030511;28;20032;-79
2024/01/14 03:33:02;;;;;;;20.27;2.97;;;;;;;;;;5039380;28;20511;-79
2024/01/14 03:35:28;;;;;;;18.83;2.65;;;;;;;;;;5016953;28;20054;-79
2024/01/14 03:37:54;;;;;;;18.27;2.30;;;;;;;;;;5022583;28;20037;-78
2024/01/14 03:40:20;;;;;;;20.70;2.20;;;;;;;;;;5023770;28;20069;-79
2024/01/14 03:42:46;;;;;;;15.82;1.92;;;;;;;;;;5040232;28;20479;-79
2024/01/14 03:45:12;;;;;;;25.25;3.10;;;;;;;;;;5028227;28;20045;-79
2024/01/14 03:47:38;;;;;;;25.17;3.55;;;;;;;;;;5024900;28;20693;-79
2024/01/14 03:50:05;;;;;;;23.10;2.60;;;;;;;;;;5024445;28;20056;-79
2024/01/14 03:52:31;;;;;;;20.35;2.30;;;;;;;;;;5022316;28;20036;-79
2024/01/14 03:54:57;;;;;;;11.52;3.03;;;;;;;;;;5026460;28;20046;-78
2024/01/14 03:57:23;;;;;;;29.60;2.63;;;;;;;;;;5020369;28;20116;-79
2024/01/14 03:59:49;;;;;;;17.25;2.47;;;;;;;;;;5028122;28;20422;-79
2024/01/14 04:02:15;;;;;;;18.67;2.65;;;;;;;;;;5023347;28;20173;-79
2024/01/14 04:04:41;;;;;;;19.17;2.50;;;;;;;;;;5020188;28;20041;-77
2024/01/14 04:07:07;;;;;;;20.48;2.25;;;;;;;;;;5025864;28;20057;-79
2024/01/14 04:09:33;;;;;;;17.70;1.92;;;;;;;;;;5024911;28;20025;-79
2024/01/14 04:11:59;;;;;;;25.13;2.25;;;;;;;;;;5029656;28;20029;-79
2024/01/14 04:14:25;;;;;;;9.68;1.65;;;;;;;;;;5026989;28;20048;-79
2024/01/14 04:16:51;;;;;;;25.05;3.22;;;;;;;;;;5021926;28;20029;-80
2024/01/14 04:19:17;;;;;;;22.88;3.72;;;;;;;;;;5024987;28;20044;-78
2024/01/14 04:21:43;;;;;;;19.70;2.20;;;;;;;;;;5018674;28;20069;-79
2024/01/14 04:24:10;;;;;;;26.05;2.65;;;;;;;;;;5023417;28;20055;-78
2024/01/14 04:26:36;;;;;;;17.20;2.47;;;;;;;;;;5026821;28;20030;-80
2024/01/14 04:29:02;;;;;;;20.60;2.55;;;;;;;;;;5023138;28;20025;-80
2024/01/14 04:31:28;;;;;;;20.15;2.33;;;;;;;;;;5021726;28;20038;-79
2024/01/14 04:33:55;;;;;;;22.60;2.40;;;;;;;;;;5020412;28;20022;-80
2024/01/14 04:36:21;;;;;;;15.85;2.03;;;;;;;;;;5026253;28;20033;-80
2024/01/14 04:38:47;;;;;;;19.00;2.63;;;;;;;;;;5022045;28;20037;-81
2024/01/14 04:41:13;;;;;;;16.95;1.63;;;;;;;;;;5029031;28;20057;-80
2024/01/14 04:43:39;;;;;;;24.33;3.88;;;;;;;;;;5021493;28;20034;-79
2024/01/14 04:46:11;;;;;;;16.52;2.10;;;;;;;;;;5024316;28;20037;-79
2024/01/14 04:48:37;;;;;;;16.80;3.60;;;;;;;;;;5032273;28;20088;-79
2024/01/14 04:51:03;;;;;;;20.88;2.60;;;;;;;;;;5022570;28;20037;-79
2024/01/14 04:53:29;;;;;;;33.80;2.85;;;;;;;;;;5026048;28;20036;-80
2024/01/14 04:55:55;;;;;;;19.23;1.48;;;;;;;;;;5021741;28;20038;-80
2024/01/14 04:58:21;;;;;;;10.30;1.73;;;;;;;;;;5022250;28;20088;-78
2024/01/14 05:00:47;;;;;;;8.25;1.42;;;;;;;;;;5023086;28;20026;-81
2024/01/14 05:03:13;;;;;;;6.30;1.23;;;;;;;;;;5023511;28;20029;-79
2024/01/14 05:05:39;;;;;;;12.55;1.83;;;;;;;;;;5036496;28;20457;-80
2024/01/14 05:08:06;;;;;;;24.20;2.00;;;;;;;;;;5036174;28;20127;-81
2024/01/14 05:10:32;;;;;;;8.85;1.63;;;;;;;;;;5025920;28;20030;-81
2024/01/14 05:12:58;;;;;;;12.18;1.83;;;;;;;;;;5022674;28;20064;-80
2024/01/14 05:15:24;;;;;;;14.25;1.92;;;;;;;;;;5026895;28;20089;-80
2024/01/14 05:17:50;;;;;;;12.02;1.35;;;;;;;;;;5026514;28;20044;-78
2024/01/14 05:20:16;;;;;;;15.15;1.90;;;;;;;;;;5017695;28;20021;-80
2024/01/14 05:22:42;;;;;;;19.67;1.90;;;;;;;;;;5025323;28;20034;-79
2024/01/14 05:25:08;;;;;;;23.10;2.28;;;;;;;;;;5020709;28;20042;-81
2024/01/14 05:27:34;;;;;;;26.40;2.25;;;;;;;;;;5039217;28;20037;-80
2024/01/14 05:30:00;;;;;;;15.40;1.88;;;;;;;;;;5022014;28;20045;-80
2024/01/14 05:32:26;;;;;;;23.13;2.15;;;;;;;;;;5019695;28;20495;-81
2024/01/14 05:34:52;;;;;;;21.02;3.00;;;;;;;;;;5023581;28;20037;-78
2024/01/14 05:37:18;;;;;;;14.00;1.23;;;;;;;;;;5021364;28;20034;-79
2024/01/14 05:39:44;;;;;;;16.95;2.15;;;;;;;;;;5019508;28;20029;-79
2024/01/14 05:42:10;;;;;;;11.55;1.58;;;;;;;;;;5017661;28;20112;-81
2024/01/14 05:44:36;;;;;;;12.48;2.30;;;;;;;;;;5007622;28;20064;-79
2024/01/14 05:47:02;;;;;;;21.15;2.38;;;;;;;;;;5013957;28;20036;-80
2024/01/14 05:49:28;;;;;;;13.30;1.70;;;;;;;;;;5012892;28;20029;-81
2024/01/14 05:51:56;;;;;;;13.95;1.98;;;;;;;;;;5017433;28;20099;-79
2024/01/14 05:54:23;;;;;;;13.60;2.08;;;;;;;;;;5012531;28;20030;-82
2024/01/14 05:56:49;;;;;;;22.58;2.22;;;;;;;;;;5013142;28;20388;-84
2024/01/14 05:59:21;;;;;;;27.90;8.75;;;;;;;;;;5026389;28;20026;-84
2024/01/14 06:01:47;;;;;;;12.27;1.48;;;;;;;;;;5015842;28;20025;-81
2024/01/14 06:04:13;;;;;;;20.67;2.10;;;;;;;;;;5008704;28;20033;-80
2024/01/14 06:06:39;;;;;;;13.07;1.35;;;;;;;;;;5012842;28;20050;-81
2024/01/14 06:09:05;;;;;;;13.13;3.30;;;;;;;;;;5009438;28;20040;-80
2024/01/14 06:11:31;;;;;;;13.32;1.40;;;;;;;;;;5021651;28;20210;-81
2024/01/14 06:13:57;;;;;;;16.10;1.52;;;;;;;;;;5010172;28;20060;-82
2024/01/14 06:16:25;;;;;;;27.20;3.25;;;;;;;;;;5011830;28;20079;-82
2024/01/14 06:18:51;;;;;;;17.85;3.00;;;;;;;;;;5007563;28;20033;-82
2024/01/14 06:21:17;;;;;;;14.40;2.67;;;;;;;;;;5028099;28;20045;-81
2024/01/14 06:23:43;;;;;;;19.35;2.00;;;;;;;;;;5019911;28;20021;-81
2024/01/14 06:26:15;;;;;;;12.18;1.90;;;;;;;;;;5028084;28;20037;-81
2024/01/14 06:28:41;;;;;;;16.65;1.70;;;;;;;;;;5030836;28;20060;-80
2024/01/14 06:31:08;;;;;;;9.65;1.60;;;;;;;;;;5027854;28;20026;-81
2024/01/14 06:33:34;;;;;;;13.68;2.05;;;;;;;;;;5028271;28;20037;-82
2024/01/14 06:36:00;;;;;;;12.02;1.48;;;;;;;;;;5016361;28;20037;-81
2024/01/14 06:38:26;;;;;;;16.65;2.08;;;;;;;;;;5011763;28;20030;-82
2024/01/14 06:40:52;;;;;;;13.15;1.38;;;;;;;;;;5025599;28;20030;-82
2024/01/14 06:43:18;;;;;;;20.13;1.38;;;;;;;;;;5020796;28;20026;-81
2024/01/14 06:45:44;;;;;;;12.55;2.25;;;;;;;;;;5010496;28;20096;-81
2024/01/14 06:48:10;;;;;;;19.23;1.77;;;;;;;;;;5009307;28;20026;-80
2024/01/14 06:50:36;;;;;;;6.65;1.77;;;;;;;;;;5009148;28;20826;-81
2024/01/14 06:53:03;;;;;;;6.20;1.20;;;;;;;;;;5010546;28;22494;-83
2024/01/14 06:55:29;;;;;;;13.05;2.17;;;;;;;;;;5014046;28;20064;-81
2024/01/14 06:57:55;;;;;;;12.95;1.10;;;;;;;;;;5025085;28;20038;-80
2024/01/14 07:00:21;;;;;;;14.63;2.30;;;;;;;;;;5019941;28;20071;-80
2024/01/14 07:02:47;;;;;;;19.15;2.50;;;;;;;;;;5026256;28;20211;-80
2024/01/14 07:05:13;;;;;;;16.27;1.90;;;;;;;;;;5031784;28;20030;-80
2024/01/14 07:07:39;;;;;;;11.73;1.65;;;;;;;;;;5029355;28;20705;-80
2024/01/14 07:10:05;;;;;;;18.55;2.95;;;;;;;;;;5036519;28;20395;-80
2024/01/14 07:12:31;;;;;;;17.00;1.55;;;;;;;;;;5012929;28;20045;-80
2024/01/14 07:14:57;;;;;;;24.90;1.60;;;;;;;;;;5019449;28;20094;-81
2024/01/14 07:17:23;;;;;;;13.07;2.25;;;;;;;;;;5031922;28;20021;-80
2024/01/14 07:19:50;;;;;;;15.38;2.53;;;;;;;;;;5031641;28;20488;-80
2024/01/14 07:22:16;;;;;;;46.22;2.22;;;;;;;;;;5032090;28;20029;-80
2024/01/14 07:24:42;;;;;;;17.27;2.95;;;;;;;;;;5032073;28;20069;-79
2024/01/14 07:27:08;;;;;;;15.75;1.92;;;;;;;;;;5021641;28;20041;-80
2024/01/14 07:29:34;;;;;;;13.77;1.50;;;;;;;;;;5015951;28;20026;-80
2024/01/14 07:32:00;;;;;;;13.68;1.42;;;;;;;;;;5021230;28;20021;-81
2024/01/14 07:34:27;;;;;;;37.45;1.63;;;;;;;;;;5029940;28;20041;-79
2024/01/14 07:36:53;;;;;;;13.18;1.65;;;;;;;;;;5013880;28;20033;-81
2024/01/14 07:39:19;;;;;;;15.00;2.22;;;;;;;;;;5020646;28;20033;-80
2024/01/14 07:41:45;;;;;;;10.85;2.00;;;;;;;;;;5020503;28;20025;-79
2024/01/14 07:44:11;;;;;;;9.13;1.30;;;;;;;;;;5046952;28;20033;-80
2024/01/14 07:46:37;;;;;;;15.55;2.20;;;;;;;;;;5018578;28;20029;-81
2024/01/14 07:49:03;;;;;;;12.02;1.67;;;;;;;;;;5021938;28;20113;-81
2024/01/14 07:51:29;;;;;;;10.80;1.40;;;;;;;;;;5028050;28;20026;-82
2024/01/14 07:53:55;;;;;;;12.82;1.60;;;;;;;;;;5021972;28;20030;-80
2024/01/14 07:56:21;;;;;;;6.80;1.25;;;;;;;;;;5027630;28;20025;-81
2024/01/14 07:58:47;;;;;;;12.98;2.03;;;;;;;;;;5031201;28;20033;-80
2024/01/14 08:01:13;;;;;;;12.52;1.20;;;;;;;;;;5023968;28;20034;-81
2024/01/14 08:03:39;;;;;;;14.35;1.48;;;;;;;;;;5025477;28;20452;-80
2024/01/14 08:06:06;;;;;;;13.90;1.88;;;;;;;;;;5011639;28;20038;-80
2024/01/14 08:08:32;;;;;;;11.85;1.40;;;;;;;;;;5030917;28;20057;-81
2024/01/14 08:10:59;;;;;;;8.48;1.30;;;;;;;;;;5031078;28;20061;-81
2024/01/14 08:13:26;;;;;;;9.05;1.27;;;;;;;;;;5028763;28;20033;-81
2024/01/14 08:15:52;;;;;;;14.82;1.75;;;;;;;;;;5020601;28;20061;-80
2024/01/14 08:18:19;;;;;;;11.77;2.00;;;;;;;;;;5030880;28;20030;-80
2024/01/14 08:20:47;;;;;;;9.23;1.80;;;;;;;;;;5027236;28;20479;-79
2024/01/14 08:23:14;;;;;;;14.45;2.17;;;;;;;;;;5032940;28;20037;-79
2024/01/14 08:25:40;;;;;;;12.43;2.88;;;;;;;;;;5019592;28;20033;-79
2024/01/14 08:28:06;;;;;;;15.80;2.67;;;;;;;;;;5031728;28;20093;-80
2024/01/14 08:30:32;;;;;;;6.75;1.25;;;;;;;;;;5020416;28;20025;-79
2024/01/14 08:32:58;;;;;;;14.98;1.25;;;;;;;;;;5030243;28;20033;-80
2024/01/14 08:35:24;;;;;;;13.95;1.80;;;;;;;;;;5022692;28;20479;-82
2024/01/14 08:37:50;;;;;;;11.20;1.48;;;;;;;;;;5012992;28;20069;-78
2024/01/14 08:40:16;;;;;;;13.13;2.47;;;;;;;;;;5020889;28;20044;-79
2024/01/14 08:42:44;;;;;;;12.52;1.35;;;;;;;;;;5012497;28;20042;-78
2024/01/14 08:45:11;;;;;;;33.55;9.32;;;;;;;;;;5016254;28;20037;-80
2024/01/14 08:47:37;;;;;;;15.65;5.60;;;;;;;;;;5024045;28;20031;-79
2024/01/14 08:50:03;;;;;;;8.25;2.15;;;;;;;;;;5033830;28;20025;-83
2024/01/14 08:52:29;;;;;;;9.98;2.10;;;;;;;;;;5031903;28;20090;-81
2024/01/14 08:54:55;;;;;;;23.75;4.65;;;;;;;;;;5021159;28;20040;-80
2024/01/14 08:57:21;;;;;;;17.20;4.68;;;;;;;;;;5020736;28;20033;-79
2024/01/14 08:59:48;;;;;;;38.45;17.75;;;;;;;;;;5030453;28;20881;-78
2024/01/14 09:02:14;;;;;;;53.13;21.65;;;;;;;;;;5021958;28;20034;-78
2024/01/14 09:04:40;;;;;;;45.58;17.58;;;;;;;;;;5025271;28;20049;-79
2024/01/14 09:07:06;;;;;;;21.58;6.05;;;;;;;;;;5011556;28;20468;-79
2024/01/14 09:09:32;;;;;;;24.73;4.82;;;;;;;;;;5010018;28;20095;-78
2024/01/14 09:11:58;;;;;;;25.30;4.32;;;;;;;;;;5030867;28;20418;-78
2024/01/14 09:14:24;;;;;;;18.85;3.30;;;;;;;;;;5014719;28;20345;-83
2024/01/14 09:16:51;;;;;;;12.45;1.95;;;;;;;;;;5020023;28;20049;-81
2024/01/14 09:19:17;;;;;;;11.20;2.13;;;;;;;;;;5010858;28;20117;-78
2024/01/14 09:21:43;;;;;;;14.18;2.70;;;;;;;;;;5011882;28;20042;-78
2024/01/14 09:24:09;;;;;;;10.18;1.75;;;;;;;;;;5018478;28;20032;-78
2024/01/14 09:26:35;;;;;;;12.98;2.25;;;;;;;;;;5016370;28;20026;-78
2024/01/14 09:29:01;;;;;;;10.70;2.13;;;;;;;;;;5011520;28;20025;-78
2024/01/14 09:31:27;;;;;;;13.00;1.92;;;;;;;;;;5014324;28;20041;-79
2024/01/14 09:33:53;;;;;;;8.52;2.85;;;;;;;;;;5019520;28;20030;-79
2024/01/14 09:36:20;;;;;;;14.95;2.60;;;;;;;;;;5024063;28;20063;-80
2024/01/14 09:38:46;;;;;;;12.80;1.70;;;;;;;;;;5027454;28;20033;-77
2024/01/14 09:41:39;;;;;;;8.43;1.42;;;;;;;;;;5018744;28;20038;-78
2024/01/14 09:44:05;;;;;;;11.32;1.88;;;;;;;;;;5000012;28;20041;-80
2024/01/14 09:46:31;;;;;;;11.27;3.63;;;;;;;;;;5033856;28;20121;-82
2024/01/14 09:48:58;;;;;;;12.27;2.65;;;;;;;;;;5015622;28;20037;-79
2024/01/14 09:51:29;;;;;;;13.77;3.58;;;;;;;;;;5028014;28;20478;-77
2024/01/14 09:53:56;;;;;;;7.32;1.63;;;;;;;;;;5016134;28;20025;-86
2024/01/14 09:56:23;;;;;;;9.80;3.05;;;;;;;;;;5030095;28;20037;-89
2024/01/14 09:58:49;;;;;;;10.50;1.80;;;;;;;;;;5027113;28;20041;-86
2024/01/14 10:01:17;;;;;;;11.13;2.35;;;;;;;;;;5029882;28;20839;-85
2024/01/14 10:03:43;;;;;;;10.30;2.38;;;;;;;;;;5030723;28;20029;-85
2024/01/14 10:06:09;;;;;;;11.60;2.47;;;;;;;;;;5041461;28;20026;-86
2024/01/14 10:08:35;;;;;;;14.52;1.90;;;;;;;;;;5030580;28;20026;-86
2024/01/14 10:11:03;;;;;;;10.35;2.33;;;;;;;;;;5027753;28;20025;-87
2024/01/14 10:13:31;;;;;;;13.07;3.33;;;;;;;;;;5049710;28;21830;-87
2024/01/14 10:15:58;;;;;;;10.73;4.28;;;;;;;;;;5022552;28;20117;-87
2024/01/14 10:18:24;;;;;;;14.35;3.33;;;;;;;;;;5031160;28;20029;-87
2024/01/14 10:20:52;;;;;;;13.10;2.88;;;;;;;;;;5016984;28;20058;-87
2024/01/14 10:23:18;;;;;;;13.27;2.10;;;;;;;;;;5027050;28;20755;-88
2024/01/14 10:25:45;;;;;;;10.88;2.30;;;;;;;;;;5011516;28;20041;-80
2024/01/14 10:28:11;;;;;;;11.25;2.60;;;;;;;;;;5022823;28;20499;-78
2024/01/14 10:30:37;;;;;;;27.35;10.38;;;;;;;;;;5019725;28;20017;-77
2024/01/14 10:33:06;;;;;;;10.30;3.30;;;;;;;;;;5016200;28;20025;-76
2024/01/14 10:35:32;;;;;;;10.40;2.47;;;;;;;;;;5011829;28;20037;-78
2024/01/14 10:37:58;;;;;;;11.57;2.80;;;;;;;;;;5011971;28;20045;-79
2024/01/14 10:40:24;;;;;;;8.93;1.40;;;;;;;;;;5011743;28;20061;-79
2024/01/14 10:42:51;;;;;;;12.60;2.38;;;;;;;;;;5024448;28;20111;-78
2024/01/14 10:45:17;;;;;;;13.82;2.80;;;;;;;;;;5012104;28;20396;-79
2024/01/14 10:47:47;;;;;;;11.35;1.95;;;;;;;;;;5022103;28;20107;-78
2024/01/14 10:50:14;;;;;;;13.25;1.90;;;;;;;;;;5017881;28;20030;-78
2024/01/14 10:52:42;;;;;;;11.48;1.85;;;;;;;;;;5025808;28;20033;-75
2024/01/14 10:55:23;;;;;;;13.57;1.90;;;;;;;;;;5015410;28;20038;-77
2024/01/14 10:57:51;;;;;;;10.68;1.25;;;;;;;;;;5006407;28;20044;-76
2024/01/14 11:00:19;;;;;;;12.05;2.05;;;;;;;;;;5018053;28;20037;-76
2024/01/14 11:02:45;;;;;;;18.15;3.97;;;;;;;;;;5010162;28;20105;-76
2024/01/14 11:05:12;;;;;;;15.57;3.33;;;;;;;;;;5004278;28;20038;-77
2024/01/14 11:07:38;;;;;;;7.80;1.92;;;;;;;;;;5023508;28;20050;-76
2024/01/14 11:10:05;;;;;;;7.28;2.03;;;;;;;;;;5015212;28;20604;-79
2024/01/14 11:12:31;;;;;;;8.68;1.10;;;;;;;;;;5031844;28;20029;-75
2024/01/14 11:15:10;;;;;;;9.43;1.33;;;;;;;;;;5035055;28;20387;-78
2024/01/14 11:17:45;;;;;;;12.95;2.50;;;;;;;;;;5012429;28;20030;-75
2024/01/14 11:20:15;;;;;;;5.72;1.40;;;;;;;;;;5020326;28;20057;-76
2024/01/14 11:22:41;;;;;;;9.45;1.73;;;;;;;;;;5023335;28;20511;-77
2024/01/14 11:25:14;;;;;;;11.30;4.13;;;;;;;;;;5023982;28;20398;-80
2024/01/14 11:27:40;;;;;;;8.48;1.90;;;;;;;;;;5023346;28;20125;-76
2024/01/14 11:30:11;;;;;;;9.40;1.67;;;;;;;;;;5013014;28;20814;-76
2024/01/14 11:32:37;;;;;;;4.82;1.00;;;;;;;;;;5004518;28;20156;-76
2024/01/14 11:35:05;;;;;;;10.80;1.95;;;;;;;;;;5007821;28;20491;-76
2024/01/14 11:37:34;;;;;;;6.05;1.10;;;;;;;;;;5024524;28;20080;-78
2024/01/14 11:40:09;;;;;;;4.40;0.70;;;;;;;;;;5021678;28;20026;-76
2024/01/14 11:42:49;;;;;;;4.20;0.93;;;;;;;;;;5017102;28;20029;-77
2024/01/14 11:45:24;;;;;;;7.50;2.33;;;;;;;;;;5026281;28;20128;-76
2024/01/14 11:47:50;;;;;;;7.95;3.10;;;;;;;;;;5018817;28;20164;-77
2024/01/14 11:50:17;;;;;;;4.63;1.35;;;;;;;;;;5030100;28;20060;-76
2024/01/14 11:52:47;;;;;;;9.90;2.70;;;;;;;;;;5004817;28;20029;-76
2024/01/14 11:55:16;;;;;;;10.65;2.15;;;;;;;;;;4997061;28;20476;-75
2024/01/14 11:57:42;;;;;;;6.45;1.77;;;;;;;;;;5018026;28;20033;-77
2024/01/14 12:00:08;;;;;;;10.18;1.58;;;;;;;;;;5010661;28;20101;-75
2024/01/14 12:02:35;;;;;;;4.38;0.75;;;;;;;;;;5015348;28;20025;-77
2024/01/14 12:05:20;;;;;;;4.60;1.20;;;;;;;;;;5015818;28;20046;-76
2024/01/14 12:07:46;;;;;;;6.53;1.15;;;;;;;;;;5010522;28;20050;-75
2024/01/14 12:10:18;;;;;;;6.43;0.68;;;;;;;;;;5011431;28;20033;-76
2024/01/14 12:12:44;;;;;;;9.18;1.73;;;;;;;;;;5014668;28;20061;-72
2024/01/14 12:15:10;;;;;;;4.95;1.00;;;;;;;;;;5021645;28;20033;-78
2024/01/14 12:17:36;;;;;;;4.90;1.25;;;;;;;;;;5018893;28;20030;-76
2024/01/14 12:20:04;;;;;;;5.18;1.00;;;;;;;;;;5026618;28;20037;-78
2024/01/14 12:22:31;;;;;;;7.72;1.77;;;;;;;;;;5013861;28;20083;-77
2024/01/14 12:24:57;;;;;;;7.00;1.08;;;;;;;;;;5020387;28;20042;-77
2024/01/14 12:27:23;;;;;;;3.08;1.05;;;;;;;;;;5014209;28;20037;-76
2024/01/14 12:29:49;;;;;;;7.22;1.30;;;;;;;;;;5016821;28;20033;-77
2024/01/14 12:32:16;;;;;;;7.60;1.45;;;;;;;;;;5013369;28;20022;-76
2024/01/14 12:34:43;;;;;;;9.55;1.48;;;;;;;;;;5017160;28;20031;-76
2024/01/14 12:37:13;;;;;;;8.63;1.60;;;;;;;;;;5013586;28;20038;-76
2024/01/14 12:39:39;;;;;;;6.70;1.20;;;;;;;;;;5026802;28;20087;-76
2024/01/14 12:42:05;;;;;;;8.20;1.35;;;;;;;;;;5023101;28;20033;-77
2024/01/14 12:44:33;;;;;;;8.38;1.10;;;;;;;;;;5009455;28;20049;-76
2024/01/14 12:47:08;;;;;;;5.72;1.70;;;;;;;;;;5024363;28;20056;-76
2024/01/14 12:49:34;;;;;;;10.57;1.80;;;;;;;;;;5017317;28;20033;-76
2024/01/14 12:52:07;;;;;;;5.50;1.85;;;;;;;;;;5015422;28;20030;-77
2024/01/14 12:54:33;;;;;;;5.30;0.90;;;;;;;;;;5020032;28;20034;-75
2024/01/14 12:57:03;;;;;;;8.20;2.88;;;;;;;;;;5023362;28;20112;-74
2024/01/14 12:59:29;;;;;;;7.07;2.33;;;;;;;;;;5023635;28;20043;-76
2024/01/14 13:01:56;;;;;;;9.80;1.77;;;;;;;;;;5025968;28;20057;-76
2024/01/14 13:04:22;;;;;;;5.50;1.20;;;;;;;;;;5010948;28;20036;-76
2024/01/14 13:06:48;;;;;;;6.20;1.13;;;;;;;;;;5034849;28;20060;-76
2024/01/14 13:09:16;;;;;;;6.78;2.15;;;;;;;;;;5037452;28;20041;-76
2024/01/14 13:11:42;;;;;;;6.78;1.15;;;;;;;;;;5011454;28;20536;-76
2024/01/14 13:14:08;;;;;;;9.20;1.40;;;;;;;;;;5011496;28;20037;-74
2024/01/14 13:16:37;;;;;;;6.90;1.30;;;;;;;;;;5021156;28;20029;-76
2024/01/14 13:19:03;;;;;;;9.52;1.38;;;;;;;;;;5014816;28;20487;-76
2024/01/14 13:21:29;;;;;;;5.65;1.30;;;;;;;;;;5024228;28;20037;-75
2024/01/14 13:23:56;;;;;;;4.85;1.10;;;;;;;;;;5016030;28;20040;-76
2024/01/14 13:26:26;;;;;;;5.82;0.80;;;;;;;;;;5031819;28;20065;-73
2024/01/14 13:28:53;;;;;;;7.15;1.88;;;;;;;;;;5016267;28;20067;-75
2024/01/14 13:31:19;;;;;;;6.13;1.67;;;;;;;;;;5025821;28;20376;-76
2024/01/14 13:33:49;;;;;;;6.28;1.30;;;;;;;;;;5015743;28;20600;-75
2024/01/14 13:36:15;;;;;;;9.68;1.95;;;;;;;;;;5024819;28;20044;-75
2024/01/14 13:38:42;;;;;;;6.70;0.98;;;;;;;;;;5005156;28;20065;-76
2024/01/14 13:41:08;;;;;;;8.77;1.98;;;;;;;;;;5010183;28;20135;-76
2024/01/14 13:43:34;;;;;;;8.77;1.48;;;;;;;;;;5010853;28;20025;-74
2024/01/14 13:46:00;;;;;;;13.98;2.30;;;;;;;;;;5011370;28;20491;-75
2024/01/14 13:48:27;;;;;;;7.22;1.25;;;;;;;;;;5012466;28;20030;-76
2024/01/14 13:50:53;;;;;;;15.95;3.60;;;;;;;;;;5011720;28;20030;-76
2024/01/14 13:53:19;;;;;;;6.93;1.40;;;;;;;;;;5007948;28;20022;-74
2024/01/14 13:55:45;;;;;;;10.05;1.60;;;;;;;;;;5026354;28;20164;-75
2024/01/14 13:58:11;;;;;;;5.90;1.70;;;;;;;;;;4996110;28;20033;-75
2024/01/14 14:00:37;;;;;;;11.10;1.55;;;;;;;;;;5021389;28;20038;-76
2024/01/14 14:03:04;;;;;;;13.02;1.33;;;;;;;;;;5011660;28;20037;-75
2024/01/14 14:05:30;;;;;;;6.13;1.00;;;;;;;;;;5009431;28;20041;-75
2024/01/14 14:07:56;;;;;;;23.30;6.90;;;;;;;;;;5023675;28;20046;-72
2024/01/14 14:10:22;;;;;;;7.85;0.93;;;;;;;;;;5007438;28;20037;-77
2024/01/14 14:12:48;;;;;;;11.73;1.60;;;;;;;;;;5009338;28;20038;-78
2024/01/14 14:15:14;;;;;;;18.15;1.75;;;;;;;;;;5030638;28;20050;-74
2024/01/14 14:17:41;;;;;;;9.63;1.52;;;;;;;;;;5002550;28;20038;-75
2024/01/14 14:20:08;;;;;;;8.40;1.00;;;;;;;;;;5029642;28;20037;-75
2024/01/14 14:22:34;;;;;;;6.57;1.42;;;;;;;;;;5009838;28;20033;-75
2024/01/14 14:25:00;;;;;;;9.65;2.67;;;;;;;;;;5030914;28;20048;-75
2024/01/14 14:27:26;;;;;;;9.77;1.73;;;;;;;;;;5011255;28;20033;-75
2024/01/14 14:29:52;;;;;;;7.60;1.27;;;;;;;;;;5028108;28;20057;-75